sensor_id;sensor_type;location;lat;lon;timestamp;P1;durP1;ratioP1;P2;durP2;ratioP2
10458;SDS011;5277;48.722;8.736;2022-11-20T00:01:18;10.53;;;5.67;;
10458;SDS011;5277;48.722;8.736;2022-11-20T00:03:46;11.60;;;5.37;;
10458;SDS011;5277;48.722;8.736;2022-11-20T00:06:13;5.70;;;4.13;;
10458;SDS011;5277;48.722;8.736;2022-11-20T00:08:40;14.70;;;4.50;;
10458;SDS011;5277;48.722;8.736;2022-11-20T00:11:08;11.87;;;6.20;;
10458;SDS011;5277;48.722;8.736;2022-11-20T00:13:41;12.50;;;5.83;;
10458;SDS011;5277;48.722;8.736;2022-11-20T00:16:12;9.43;;;4.80;;
10458;SDS011;5277;48.722;8.736;2022-11-20T00:18:39;8.67;;;5.27;;
10458;SDS011;5277;48.722;8.736;2022-11-20T00:21:09;5.17;;;4.20;;
10458;SDS011;5277;48.722;8.736;2022-11-20T00:23:37;8.83;;;4.17;;
10458;SDS011;5277;48.722;8.736;2022-11-20T00:26:06;7.53;;;4.27;;
10458;SDS011;5277;48.722;8.736;2022-11-20T00:28:33;6.63;;;4.40;;
10458;SDS011;5277;48.722;8.736;2022-11-20T00:33:28;10.60;;;4.57;;
10458;SDS011;5277;48.722;8.736;2022-11-20T00:35:56;6.40;;;4.27;;
10458;SDS011;5277;48.722;8.736;2022-11-20T00:38:40;8.03;;;4.67;;
10458;SDS011;5277;48.722;8.736;2022-11-20T00:41:08;11.97;;;4.90;;
10458;SDS011;5277;48.722;8.736;2022-11-20T00:43:36;8.43;;;5.40;;
10458;SDS011;5277;48.722;8.736;2022-11-20T00:46:17;9.20;;;4.73;;
10458;SDS011;5277;48.722;8.736;2022-11-20T00:48:44;6.40;;;4.00;;
10458;SDS011;5277;48.722;8.736;2022-11-20T00:51:11;8.90;;;4.60;;
10458;SDS011;5277;48.722;8.736;2022-11-20T00:53:38;5.50;;;3.90;;
10458;SDS011;5277;48.722;8.736;2022-11-20T00:56:05;11.20;;;4.50;;
10458;SDS011;5277;48.722;8.736;2022-11-20T00:58:36;5.67;;;4.20;;
10458;SDS011;5277;48.722;8.736;2022-11-20T01:01:03;6.13;;;4.60;;
10458;SDS011;5277;48.722;8.736;2022-11-20T01:03:40;16.37;;;4.40;;
10458;SDS011;5277;48.722;8.736;2022-11-20T01:06:12;6.00;;;4.10;;
10458;SDS011;5277;48.722;8.736;2022-11-20T01:08:39;8.77;;;4.33;;
10458;SDS011;5277;48.722;8.736;2022-11-20T01:11:06;7.53;;;3.70;;
10458;SDS011;5277;48.722;8.736;2022-11-20T01:13:36;7.67;;;3.73;;
10458;SDS011;5277;48.722;8.736;2022-11-20T01:16:10;9.77;;;4.83;;
10458;SDS011;5277;48.722;8.736;2022-11-20T01:18:37;6.67;;;4.10;;
10458;SDS011;5277;48.722;8.736;2022-11-20T01:21:05;9.27;;;3.70;;
10458;SDS011;5277;48.722;8.736;2022-11-20T01:23:40;5.17;;;3.40;;
10458;SDS011;5277;48.722;8.736;2022-11-20T01:26:09;6.60;;;4.00;;
10458;SDS011;5277;48.722;8.736;2022-11-20T01:28:37;6.60;;;3.80;;
10458;SDS011;5277;48.722;8.736;2022-11-20T01:31:16;6.13;;;3.50;;
10458;SDS011;5277;48.722;8.736;2022-11-20T01:33:44;6.53;;;3.77;;
10458;SDS011;5277;48.722;8.736;2022-11-20T01:36:12;6.37;;;3.10;;
10458;SDS011;5277;48.722;8.736;2022-11-20T01:38:38;4.10;;;2.90;;
10458;SDS011;5277;48.722;8.736;2022-11-20T01:41:05;6.50;;;3.50;;
10458;SDS011;5277;48.722;8.736;2022-11-20T01:43:31;6.47;;;3.73;;
10458;SDS011;5277;48.722;8.736;2022-11-20T01:46:12;6.53;;;4.60;;
10458;SDS011;5277;48.722;8.736;2022-11-20T01:48:47;7.73;;;3.90;;
10458;SDS011;5277;48.722;8.736;2022-11-20T01:51:39;6.77;;;3.97;;
10458;SDS011;5277;48.722;8.736;2022-11-20T01:54:03;5.47;;;4.00;;
10458;SDS011;5277;48.722;8.736;2022-11-20T01:56:33;7.87;;;4.37;;
10458;SDS011;5277;48.722;8.736;2022-11-20T01:59:04;6.17;;;3.93;;
10458;SDS011;5277;48.722;8.736;2022-11-20T02:01:32;11.30;;;4.53;;
10458;SDS011;5277;48.722;8.736;2022-11-20T02:03:58;8.77;;;4.13;;
10458;SDS011;5277;48.722;8.736;2022-11-20T02:06:26;6.43;;;4.40;;
10458;SDS011;5277;48.722;8.736;2022-11-20T02:09:13;9.50;;;4.17;;
10458;SDS011;5277;48.722;8.736;2022-11-20T02:11:39;5.47;;;4.20;;
10458;SDS011;5277;48.722;8.736;2022-11-20T02:14:05;4.87;;;3.83;;
10458;SDS011;5277;48.722;8.736;2022-11-20T02:16:34;5.83;;;3.20;;
10458;SDS011;5277;48.722;8.736;2022-11-20T02:19:02;4.67;;;3.30;;
10458;SDS011;5277;48.722;8.736;2022-11-20T02:21:48;8.00;;;3.53;;
10458;SDS011;5277;48.722;8.736;2022-11-20T02:24:31;13.43;;;4.17;;
10458;SDS011;5277;48.722;8.736;2022-11-20T02:26:59;5.30;;;3.87;;
10458;SDS011;5277;48.722;8.736;2022-11-20T02:29:35;5.67;;;3.83;;
10458;SDS011;5277;48.722;8.736;2022-11-20T02:32:20;6.07;;;3.60;;
10458;SDS011;5277;48.722;8.736;2022-11-20T02:34:48;6.47;;;3.30;;
10458;SDS011;5277;48.722;8.736;2022-11-20T02:37:14;7.47;;;4.20;;
10458;SDS011;5277;48.722;8.736;2022-11-20T02:39:40;7.33;;;3.80;;
10458;SDS011;5277;48.722;8.736;2022-11-20T02:42:08;9.00;;;3.93;;
10458;SDS011;5277;48.722;8.736;2022-11-20T02:47:03;5.40;;;3.57;;
10458;SDS011;5277;48.722;8.736;2022-11-20T02:49:29;3.63;;;3.10;;
10458;SDS011;5277;48.722;8.736;2022-11-20T02:51:54;6.50;;;3.80;;
10458;SDS011;5277;48.722;8.736;2022-11-20T02:54:20;7.57;;;3.40;;
10458;SDS011;5277;48.722;8.736;2022-11-20T02:56:45;4.53;;;3.17;;
10458;SDS011;5277;48.722;8.736;2022-11-20T02:59:11;4.97;;;3.47;;
10458;SDS011;5277;48.722;8.736;2022-11-20T03:01:36;6.00;;;3.50;;
10458;SDS011;5277;48.722;8.736;2022-11-20T03:04:02;4.07;;;3.30;;
10458;SDS011;5277;48.722;8.736;2022-11-20T03:06:28;5.70;;;4.20;;
10458;SDS011;5277;48.722;8.736;2022-11-20T03:08:54;4.50;;;3.53;;
10458;SDS011;5277;48.722;8.736;2022-11-20T03:11:19;4.27;;;3.37;;
10458;SDS011;5277;48.722;8.736;2022-11-20T03:13:45;5.57;;;3.07;;
10458;SDS011;5277;48.722;8.736;2022-11-20T03:16:15;3.90;;;3.10;;
10458;SDS011;5277;48.722;8.736;2022-11-20T03:18:42;4.00;;;3.37;;
10458;SDS011;5277;48.722;8.736;2022-11-20T03:21:09;4.07;;;3.27;;
10458;SDS011;5277;48.722;8.736;2022-11-20T03:23:36;7.27;;;3.67;;
10458;SDS011;5277;48.722;8.736;2022-11-20T03:26:09;12.07;;;3.47;;
10458;SDS011;5277;48.722;8.736;2022-11-20T03:28:41;6.00;;;3.50;;
10458;SDS011;5277;48.722;8.736;2022-11-20T03:31:12;7.20;;;4.40;;
10458;SDS011;5277;48.722;8.736;2022-11-20T03:33:39;6.03;;;3.70;;
10458;SDS011;5277;48.722;8.736;2022-11-20T03:36:06;6.37;;;3.80;;
10458;SDS011;5277;48.722;8.736;2022-11-20T03:38:34;5.30;;;3.80;;
10458;SDS011;5277;48.722;8.736;2022-11-20T03:41:00;5.33;;;3.80;;
10458;SDS011;5277;48.722;8.736;2022-11-20T03:43:27;5.93;;;3.93;;
10458;SDS011;5277;48.722;8.736;2022-11-20T03:46:08;7.13;;;3.80;;
10458;SDS011;5277;48.722;8.736;2022-11-20T03:48:33;6.53;;;4.90;;
10458;SDS011;5277;48.722;8.736;2022-11-20T03:51:10;5.47;;;3.80;;
10458;SDS011;5277;48.722;8.736;2022-11-20T03:53:38;5.63;;;3.97;;
10458;SDS011;5277;48.722;8.736;2022-11-20T03:56:05;5.60;;;4.00;;
10458;SDS011;5277;48.722;8.736;2022-11-20T03:58:32;8.13;;;4.50;;
10458;SDS011;5277;48.722;8.736;2022-11-20T04:01:04;5.87;;;3.60;;
10458;SDS011;5277;48.722;8.736;2022-11-20T04:03:37;5.67;;;4.03;;
10458;SDS011;5277;48.722;8.736;2022-11-20T04:06:14;7.10;;;3.67;;
10458;SDS011;5277;48.722;8.736;2022-11-20T04:08:44;8.80;;;3.33;;
10458;SDS011;5277;48.722;8.736;2022-11-20T04:11:14;9.37;;;3.20;;
10458;SDS011;5277;48.722;8.736;2022-11-20T04:13:40;4.70;;;3.20;;
10458;SDS011;5277;48.722;8.736;2022-11-20T04:16:07;5.60;;;3.33;;
10458;SDS011;5277;48.722;8.736;2022-11-20T04:18:34;5.67;;;3.63;;
10458;SDS011;5277;48.722;8.736;2022-11-20T04:21:00;5.20;;;3.37;;
10458;SDS011;5277;48.722;8.736;2022-11-20T04:23:26;4.63;;;3.63;;
10458;SDS011;5277;48.722;8.736;2022-11-20T04:25:52;6.60;;;3.90;;
10458;SDS011;5277;48.722;8.736;2022-11-20T04:28:17;7.30;;;3.80;;
10458;SDS011;5277;48.722;8.736;2022-11-20T04:30:43;4.87;;;3.37;;
10458;SDS011;5277;48.722;8.736;2022-11-20T04:33:09;5.57;;;3.53;;
10458;SDS011;5277;48.722;8.736;2022-11-20T04:35:35;6.60;;;3.60;;
10458;SDS011;5277;48.722;8.736;2022-11-20T04:38:01;7.07;;;3.93;;
10458;SDS011;5277;48.722;8.736;2022-11-20T04:40:30;6.00;;;3.63;;
10458;SDS011;5277;48.722;8.736;2022-11-20T04:42:56;5.67;;;3.60;;
10458;SDS011;5277;48.722;8.736;2022-11-20T04:47:50;6.43;;;3.80;;
10458;SDS011;5277;48.722;8.736;2022-11-20T04:50:15;5.90;;;3.53;;
10458;SDS011;5277;48.722;8.736;2022-11-20T04:52:41;7.27;;;3.90;;
10458;SDS011;5277;48.722;8.736;2022-11-20T04:55:07;5.03;;;3.60;;
10458;SDS011;5277;48.722;8.736;2022-11-20T04:57:32;6.93;;;3.73;;
10458;SDS011;5277;48.722;8.736;2022-11-20T04:59:58;7.23;;;3.93;;
10458;SDS011;5277;48.722;8.736;2022-11-20T05:02:23;7.70;;;4.23;;
10458;SDS011;5277;48.722;8.736;2022-11-20T05:04:49;9.07;;;4.20;;
10458;SDS011;5277;48.722;8.736;2022-11-20T05:07:15;6.70;;;4.10;;
10458;SDS011;5277;48.722;8.736;2022-11-20T05:09:40;7.40;;;3.97;;
10458;SDS011;5277;48.722;8.736;2022-11-20T05:12:09;5.17;;;3.87;;
10458;SDS011;5277;48.722;8.736;2022-11-20T05:14:35;6.00;;;3.83;;
10458;SDS011;5277;48.722;8.736;2022-11-20T05:17:00;4.40;;;3.70;;
10458;SDS011;5277;48.722;8.736;2022-11-20T05:19:26;4.30;;;3.20;;
10458;SDS011;5277;48.722;8.736;2022-11-20T05:21:51;7.97;;;3.43;;
10458;SDS011;5277;48.722;8.736;2022-11-20T05:24:17;5.03;;;3.83;;
10458;SDS011;5277;48.722;8.736;2022-11-20T05:26:43;5.10;;;3.50;;
10458;SDS011;5277;48.722;8.736;2022-11-20T05:29:12;4.40;;;3.50;;
10458;SDS011;5277;48.722;8.736;2022-11-20T05:31:38;5.30;;;3.40;;
10458;SDS011;5277;48.722;8.736;2022-11-20T05:34:05;6.93;;;3.70;;
10458;SDS011;5277;48.722;8.736;2022-11-20T05:36:31;5.83;;;3.50;;
10458;SDS011;5277;48.722;8.736;2022-11-20T05:38:57;5.10;;;3.37;;
10458;SDS011;5277;48.722;8.736;2022-11-20T05:41:22;5.50;;;3.40;;
10458;SDS011;5277;48.722;8.736;2022-11-20T05:43:48;5.17;;;3.37;;
10458;SDS011;5277;48.722;8.736;2022-11-20T05:46:15;5.77;;;3.63;;
10458;SDS011;5277;48.722;8.736;2022-11-20T05:48:42;5.33;;;3.87;;
10458;SDS011;5277;48.722;8.736;2022-11-20T05:51:10;6.13;;;3.10;;
10458;SDS011;5277;48.722;8.736;2022-11-20T05:53:39;7.40;;;3.03;;
10458;SDS011;5277;48.722;8.736;2022-11-20T05:56:06;4.63;;;3.10;;
10458;SDS011;5277;48.722;8.736;2022-11-20T05:58:35;4.57;;;3.10;;
10458;SDS011;5277;48.722;8.736;2022-11-20T06:01:08;4.53;;;3.50;;
10458;SDS011;5277;48.722;8.736;2022-11-20T06:03:38;5.40;;;3.30;;
10458;SDS011;5277;48.722;8.736;2022-11-20T06:06:05;3.90;;;3.07;;
10458;SDS011;5277;48.722;8.736;2022-11-20T06:08:33;4.37;;;3.30;;
10458;SDS011;5277;48.722;8.736;2022-11-20T06:11:02;7.03;;;3.17;;
10458;SDS011;5277;48.722;8.736;2022-11-20T06:13:32;13.17;;;3.73;;
10458;SDS011;5277;48.722;8.736;2022-11-20T06:15:59;4.13;;;2.90;;
10458;SDS011;5277;48.722;8.736;2022-11-20T06:18:26;5.93;;;3.40;;
10458;SDS011;5277;48.722;8.736;2022-11-20T06:21:07;7.30;;;3.30;;
10458;SDS011;5277;48.722;8.736;2022-11-20T06:23:41;3.73;;;3.17;;
10458;SDS011;5277;48.722;8.736;2022-11-20T06:26:08;6.17;;;3.30;;
10458;SDS011;5277;48.722;8.736;2022-11-20T06:28:36;4.87;;;3.63;;
10458;SDS011;5277;48.722;8.736;2022-11-20T06:31:02;6.40;;;3.00;;
10458;SDS011;5277;48.722;8.736;2022-11-20T06:33:28;4.70;;;3.33;;
10458;SDS011;5277;48.722;8.736;2022-11-20T06:35:57;4.20;;;3.10;;
10458;SDS011;5277;48.722;8.736;2022-11-20T06:38:27;6.57;;;3.50;;
10458;SDS011;5277;48.722;8.736;2022-11-20T06:40:53;4.60;;;3.03;;
10458;SDS011;5277;48.722;8.736;2022-11-20T06:43:19;3.73;;;2.90;;
10458;SDS011;5277;48.722;8.736;2022-11-20T06:45:46;7.13;;;2.90;;
10458;SDS011;5277;48.722;8.736;2022-11-20T06:48:11;4.97;;;2.97;;
10458;SDS011;5277;48.722;8.736;2022-11-20T06:50:37;8.03;;;3.40;;
10458;SDS011;5277;48.722;8.736;2022-11-20T06:53:03;8.10;;;3.20;;
10458;SDS011;5277;48.722;8.736;2022-11-20T06:55:30;5.20;;;2.20;;
10458;SDS011;5277;48.722;8.736;2022-11-20T06:57:56;3.73;;;2.17;;
10458;SDS011;5277;48.722;8.736;2022-11-20T07:00:22;6.67;;;2.40;;
10458;SDS011;5277;48.722;8.736;2022-11-20T07:02:47;4.93;;;2.30;;
10458;SDS011;5277;48.722;8.736;2022-11-20T07:05:13;4.37;;;2.30;;
10458;SDS011;5277;48.722;8.736;2022-11-20T07:07:38;3.17;;;2.60;;
10458;SDS011;5277;48.722;8.736;2022-11-20T07:10:04;6.13;;;2.47;;
10458;SDS011;5277;48.722;8.736;2022-11-20T07:12:30;2.77;;;2.23;;
10458;SDS011;5277;48.722;8.736;2022-11-20T07:14:55;4.67;;;2.40;;
10458;SDS011;5277;48.722;8.736;2022-11-20T07:17:21;3.60;;;2.87;;
10458;SDS011;5277;48.722;8.736;2022-11-20T07:19:47;3.80;;;3.23;;
10458;SDS011;5277;48.722;8.736;2022-11-20T07:22:12;3.80;;;2.90;;
10458;SDS011;5277;48.722;8.736;2022-11-20T07:24:38;3.50;;;2.70;;
10458;SDS011;5277;48.722;8.736;2022-11-20T07:27:04;4.70;;;2.90;;
10458;SDS011;5277;48.722;8.736;2022-11-20T07:29:29;4.40;;;2.87;;
10458;SDS011;5277;48.722;8.736;2022-11-20T07:31:55;7.70;;;2.67;;
10458;SDS011;5277;48.722;8.736;2022-11-20T07:34:21;3.70;;;2.40;;
10458;SDS011;5277;48.722;8.736;2022-11-20T07:36:47;12.70;;;7.90;;
10458;SDS011;5277;48.722;8.736;2022-11-20T07:39:13;16.10;;;12.70;;
10458;SDS011;5277;48.722;8.736;2022-11-20T07:41:38;11.63;;;10.40;;
10458;SDS011;5277;48.722;8.736;2022-11-20T07:44:04;12.40;;;9.03;;
10458;SDS011;5277;48.722;8.736;2022-11-20T07:46:30;8.20;;;6.00;;
10458;SDS011;5277;48.722;8.736;2022-11-20T07:48:56;8.10;;;7.23;;
10458;SDS011;5277;48.722;8.736;2022-11-20T07:51:21;5.57;;;4.73;;
10458;SDS011;5277;48.722;8.736;2022-11-20T07:53:47;5.53;;;4.13;;
10458;SDS011;5277;48.722;8.736;2022-11-20T07:56:12;5.70;;;4.50;;
10458;SDS011;5277;48.722;8.736;2022-11-20T07:58:39;10.10;;;5.10;;
10458;SDS011;5277;48.722;8.736;2022-11-20T08:01:07;6.40;;;5.07;;
10458;SDS011;5277;48.722;8.736;2022-11-20T08:03:33;4.83;;;4.20;;
10458;SDS011;5277;48.722;8.736;2022-11-20T08:06:00;5.93;;;3.90;;
10458;SDS011;5277;48.722;8.736;2022-11-20T08:08:26;6.87;;;3.87;;
10458;SDS011;5277;48.722;8.736;2022-11-20T08:10:52;5.03;;;4.17;;
10458;SDS011;5277;48.722;8.736;2022-11-20T08:13:38;4.77;;;3.93;;
10458;SDS011;5277;48.722;8.736;2022-11-20T08:16:22;6.40;;;4.80;;
10458;SDS011;5277;48.722;8.736;2022-11-20T08:18:48;5.23;;;4.00;;
10458;SDS011;5277;48.722;8.736;2022-11-20T08:21:14;4.93;;;4.00;;
10458;SDS011;5277;48.722;8.736;2022-11-20T08:23:40;6.57;;;3.90;;
10458;SDS011;5277;48.722;8.736;2022-11-20T08:26:05;7.53;;;4.23;;
10458;SDS011;5277;48.722;8.736;2022-11-20T08:28:31;7.43;;;5.00;;
10458;SDS011;5277;48.722;8.736;2022-11-20T08:31:00;13.93;;;11.17;;
10458;SDS011;5277;48.722;8.736;2022-11-20T08:33:26;11.50;;;8.97;;
10458;SDS011;5277;48.722;8.736;2022-11-20T08:35:51;11.13;;;8.00;;
10458;SDS011;5277;48.722;8.736;2022-11-20T08:38:17;5.77;;;4.80;;
10458;SDS011;5277;48.722;8.736;2022-11-20T08:40:42;4.00;;;2.90;;
10458;SDS011;5277;48.722;8.736;2022-11-20T08:43:31;3.87;;;2.70;;
10458;SDS011;5277;48.722;8.736;2022-11-20T08:45:57;2.67;;;2.20;;
10458;SDS011;5277;48.722;8.736;2022-11-20T08:48:22;3.80;;;2.10;;
10458;SDS011;5277;48.722;8.736;2022-11-20T08:50:48;2.87;;;2.33;;
10458;SDS011;5277;48.722;8.736;2022-11-20T08:53:13;10.03;;;3.10;;
10458;SDS011;5277;48.722;8.736;2022-11-20T08:55:39;2.30;;;2.00;;
10458;SDS011;5277;48.722;8.736;2022-11-20T08:58:05;3.57;;;2.43;;
10458;SDS011;5277;48.722;8.736;2022-11-20T09:00:32;4.07;;;2.20;;
10458;SDS011;5277;48.722;8.736;2022-11-20T09:02:58;3.67;;;2.60;;
10458;SDS011;5277;48.722;8.736;2022-11-20T09:05:25;9.40;;;5.57;;
10458;SDS011;5277;48.722;8.736;2022-11-20T09:07:51;5.03;;;4.53;;
10458;SDS011;5277;48.722;8.736;2022-11-20T09:10:17;1.60;;;1.50;;
10458;SDS011;5277;48.722;8.736;2022-11-20T09:12:42;7.03;;;4.20;;
10458;SDS011;5277;48.722;8.736;2022-11-20T09:15:08;3.87;;;3.27;;
10458;SDS011;5277;48.722;8.736;2022-11-20T09:17:34;4.57;;;4.17;;
10458;SDS011;5277;48.722;8.736;2022-11-20T09:20:00;2.33;;;1.90;;
10458;SDS011;5277;48.722;8.736;2022-11-20T09:22:25;2.00;;;1.80;;
10458;SDS011;5277;48.722;8.736;2022-11-20T09:24:51;1.73;;;1.30;;
10458;SDS011;5277;48.722;8.736;2022-11-20T09:27:16;1.20;;;0.90;;
10458;SDS011;5277;48.722;8.736;2022-11-20T09:29:48;2.93;;;1.47;;
10458;SDS011;5277;48.722;8.736;2022-11-20T09:32:13;1.83;;;1.50;;
10458;SDS011;5277;48.722;8.736;2022-11-20T09:34:39;2.90;;;1.57;;
10458;SDS011;5277;48.722;8.736;2022-11-20T09:37:04;2.80;;;1.70;;
10458;SDS011;5277;48.722;8.736;2022-11-20T09:39:30;2.00;;;1.50;;
10458;SDS011;5277;48.722;8.736;2022-11-20T09:41:59;1.60;;;1.13;;
10458;SDS011;5277;48.722;8.736;2022-11-20T09:44:48;1.57;;;1.30;;
10458;SDS011;5277;48.722;8.736;2022-11-20T09:47:32;1.30;;;1.00;;
10458;SDS011;5277;48.722;8.736;2022-11-20T09:50:18;2.57;;;1.00;;
10458;SDS011;5277;48.722;8.736;2022-11-20T09:55:55;1.45;;;1.10;;
10458;SDS011;5277;48.722;8.736;2022-11-20T09:58:40;1.40;;;1.10;;
10458;SDS011;5277;48.722;8.736;2022-11-20T10:01:15;2.47;;;1.30;;
10458;SDS011;5277;48.722;8.736;2022-11-20T10:03:50;3.10;;;1.52;;
10458;SDS011;5277;48.722;8.736;2022-11-20T10:06:37;1.98;;;1.52;;
10458;SDS011;5277;48.722;8.736;2022-11-20T10:09:22;2.08;;;1.40;;
10458;SDS011;5277;48.722;8.736;2022-11-20T10:15:07;2.92;;;1.80;;
10458;SDS011;5277;48.722;8.736;2022-11-20T10:20:24;3.10;;;1.50;;
10458;SDS011;5277;48.722;8.736;2022-11-20T10:31:08;2.60;;;1.00;;
10458;SDS011;5277;48.722;8.736;2022-11-20T10:33:43;1.80;;;1.17;;
10458;SDS011;5277;48.722;8.736;2022-11-20T10:36:20;2.28;;;1.58;;
10458;SDS011;5277;48.722;8.736;2022-11-20T10:41:38;2.63;;;1.67;;
10458;SDS011;5277;48.722;8.736;2022-11-20T10:44:11;5.45;;;3.85;;
10458;SDS011;5277;48.722;8.736;2022-11-20T10:47:13;2.55;;;1.65;;
10458;SDS011;5277;48.722;8.736;2022-11-20T10:49:46;3.17;;;2.50;;
10458;SDS011;5277;48.722;8.736;2022-11-20T10:52:22;3.22;;;2.58;;
10458;SDS011;5277;48.722;8.736;2022-11-20T10:58:04;2.72;;;1.73;;
10458;SDS011;5277;48.722;8.736;2022-11-20T11:01:02;3.80;;;1.95;;
10458;SDS011;5277;48.722;8.736;2022-11-20T11:03:38;3.33;;;2.20;;
10458;SDS011;5277;48.722;8.736;2022-11-20T11:06:06;3.63;;;2.00;;
10458;SDS011;5277;48.722;8.736;2022-11-20T11:08:40;4.07;;;1.90;;
10458;SDS011;5277;48.722;8.736;2022-11-20T11:11:28;4.93;;;1.60;;
10458;SDS011;5277;48.722;8.736;2022-11-20T11:14:06;3.45;;;1.73;;
10458;SDS011;5277;48.722;8.736;2022-11-20T11:16:40;4.70;;;1.80;;
10458;SDS011;5277;48.722;8.736;2022-11-20T11:19:19;2.28;;;1.45;;
10458;SDS011;5277;48.722;8.736;2022-11-20T11:21:52;4.10;;;2.20;;
10458;SDS011;5277;48.722;8.736;2022-11-20T11:24:23;4.85;;;1.63;;
10458;SDS011;5277;48.722;8.736;2022-11-20T11:27:00;2.30;;;1.50;;
10458;SDS011;5277;48.722;8.736;2022-11-20T11:29:31;5.13;;;1.70;;
10458;SDS011;5277;48.722;8.736;2022-11-20T11:32:08;2.65;;;1.52;;
10458;SDS011;5277;48.722;8.736;2022-11-20T11:34:38;2.85;;;1.40;;
10458;SDS011;5277;48.722;8.736;2022-11-20T11:37:04;5.55;;;1.90;;
10458;SDS011;5277;48.722;8.736;2022-11-20T11:39:41;3.50;;;1.60;;
10458;SDS011;5277;48.722;8.736;2022-11-20T11:42:08;6.40;;;1.55;;
10458;SDS011;5277;48.722;8.736;2022-11-20T11:44:46;2.28;;;1.27;;
10458;SDS011;5277;48.722;8.736;2022-11-20T11:53:17;2.60;;;1.30;;
10458;SDS011;5277;48.722;8.736;2022-11-20T11:55:54;2.03;;;1.20;;
10458;SDS011;5277;48.722;8.736;2022-11-20T12:01:28;3.17;;;1.50;;
10458;SDS011;5277;48.722;8.736;2022-11-20T12:07:13;2.95;;;1.15;;
10458;SDS011;5277;48.722;8.736;2022-11-20T12:09:49;2.88;;;1.20;;
10458;SDS011;5277;48.722;8.736;2022-11-20T12:12:24;3.75;;;1.50;;
10458;SDS011;5277;48.722;8.736;2022-11-20T12:14:56;2.53;;;1.60;;
10458;SDS011;5277;48.722;8.736;2022-11-20T12:17:23;3.70;;;1.30;;
10458;SDS011;5277;48.722;8.736;2022-11-20T12:19:49;6.45;;;1.70;;
10458;SDS011;5277;48.722;8.736;2022-11-20T12:25:16;2.97;;;1.10;;
10458;SDS011;5277;48.722;8.736;2022-11-20T12:30:47;1.63;;;1.02;;
10458;SDS011;5277;48.722;8.736;2022-11-20T12:39:13;5.07;;;1.42;;
10458;SDS011;5277;48.722;8.736;2022-11-20T12:45:17;3.97;;;1.30;;
10458;SDS011;5277;48.722;8.736;2022-11-20T12:50:42;5.35;;;1.10;;
10458;SDS011;5277;48.722;8.736;2022-11-20T12:57:24;5.25;;;1.50;;
10458;SDS011;5277;48.722;8.736;2022-11-20T13:08:25;3.65;;;1.77;;
10458;SDS011;5277;48.722;8.736;2022-11-20T13:13:45;5.55;;;3.50;;
10458;SDS011;5277;48.722;8.736;2022-11-20T13:19:23;2.80;;;1.38;;
10458;SDS011;5277;48.722;8.736;2022-11-20T13:21:49;1.70;;;1.10;;
10458;SDS011;5277;48.722;8.736;2022-11-20T13:26:48;2.60;;;1.65;;
10458;SDS011;5277;48.722;8.736;2022-11-20T13:29:33;4.78;;;2.30;;
10458;SDS011;5277;48.722;8.736;2022-11-20T13:34:28;2.60;;;1.50;;
10458;SDS011;5277;48.722;8.736;2022-11-20T13:36:55;3.38;;;1.63;;
10458;SDS011;5277;48.722;8.736;2022-11-20T13:39:29;1.88;;;1.20;;
10458;SDS011;5277;48.722;8.736;2022-11-20T13:41:57;3.60;;;1.20;;
10458;SDS011;5277;48.722;8.736;2022-11-20T13:44:27;4.70;;;1.50;;
10458;SDS011;5277;48.722;8.736;2022-11-20T13:47:00;4.68;;;1.83;;
10458;SDS011;5277;48.722;8.736;2022-11-20T13:49:39;3.72;;;1.42;;
10458;SDS011;5277;48.722;8.736;2022-11-20T13:54:51;18.10;;;9.57;;
10458;SDS011;5277;48.722;8.736;2022-11-20T14:00:12;3.22;;;1.63;;
10458;SDS011;5277;48.722;8.736;2022-11-20T14:02:41;2.95;;;1.63;;
10458;SDS011;5277;48.722;8.736;2022-11-20T14:05:17;2.88;;;1.48;;
10458;SDS011;5277;48.722;8.736;2022-11-20T14:07:47;3.53;;;1.08;;
10458;SDS011;5277;48.722;8.736;2022-11-20T14:10:24;3.97;;;1.65;;
10458;SDS011;5277;48.722;8.736;2022-11-20T14:12:51;6.68;;;1.40;;
10458;SDS011;5277;48.722;8.736;2022-11-20T14:15:28;4.35;;;1.85;;
10458;SDS011;5277;48.722;8.736;2022-11-20T14:17:55;5.15;;;1.63;;
10458;SDS011;5277;48.722;8.736;2022-11-20T14:20:23;3.05;;;1.50;;
10458;SDS011;5277;48.722;8.736;2022-11-20T14:22:56;12.63;;;4.67;;
10458;SDS011;5277;48.722;8.736;2022-11-20T14:25:22;12.80;;;7.10;;
10458;SDS011;5277;48.722;8.736;2022-11-20T14:27:55;2.65;;;1.90;;
10458;SDS011;5277;48.722;8.736;2022-11-20T14:30:23;5.43;;;2.10;;
10458;SDS011;5277;48.722;8.736;2022-11-20T14:32:52;2.38;;;1.50;;
10458;SDS011;5277;48.722;8.736;2022-11-20T14:37:51;2.60;;;1.30;;
10458;SDS011;5277;48.722;8.736;2022-11-20T14:42:49;2.38;;;1.30;;
10458;SDS011;5277;48.722;8.736;2022-11-20T14:45:14;3.33;;;2.55;;
10458;SDS011;5277;48.722;8.736;2022-11-20T14:47:41;3.25;;;1.80;;
10458;SDS011;5277;48.722;8.736;2022-11-20T14:50:16;5.43;;;3.03;;
10458;SDS011;5277;48.722;8.736;2022-11-20T14:52:52;6.43;;;2.00;;
10458;SDS011;5277;48.722;8.736;2022-11-20T14:55:32;3.17;;;1.40;;
10458;SDS011;5277;48.722;8.736;2022-11-20T14:58:04;2.83;;;1.67;;
10458;SDS011;5277;48.722;8.736;2022-11-20T15:00:31;2.67;;;1.55;;
10458;SDS011;5277;48.722;8.736;2022-11-20T15:02:58;3.60;;;1.65;;
10458;SDS011;5277;48.722;8.736;2022-11-20T15:05:25;5.57;;;2.35;;
10458;SDS011;5277;48.722;8.736;2022-11-20T15:08:12;4.40;;;1.45;;
10458;SDS011;5277;48.722;8.736;2022-11-20T15:10:43;4.33;;;2.43;;
10458;SDS011;5277;48.722;8.736;2022-11-20T15:13:12;3.87;;;2.13;;
10458;SDS011;5277;48.722;8.736;2022-11-20T15:15:49;2.90;;;1.63;;
10458;SDS011;5277;48.722;8.736;2022-11-20T15:18:21;7.25;;;2.20;;
10458;SDS011;5277;48.722;8.736;2022-11-20T15:20:53;4.37;;;2.50;;
10458;SDS011;5277;48.722;8.736;2022-11-20T15:23:21;4.33;;;2.80;;
10458;SDS011;5277;48.722;8.736;2022-11-20T15:25:47;8.83;;;3.00;;
10458;SDS011;5277;48.722;8.736;2022-11-20T15:28:16;4.53;;;2.70;;
10458;SDS011;5277;48.722;8.736;2022-11-20T15:30:52;4.50;;;2.63;;
10458;SDS011;5277;48.722;8.736;2022-11-20T15:33:17;4.27;;;1.73;;
10458;SDS011;5277;48.722;8.736;2022-11-20T15:35:43;5.27;;;1.83;;
10458;SDS011;5277;48.722;8.736;2022-11-20T15:38:09;4.07;;;1.60;;
10458;SDS011;5277;48.722;8.736;2022-11-20T15:40:35;3.20;;;1.77;;
10458;SDS011;5277;48.722;8.736;2022-11-20T15:43:00;4.33;;;1.80;;
10458;SDS011;5277;48.722;8.736;2022-11-20T15:48:09;3.70;;;1.90;;
10458;SDS011;5277;48.722;8.736;2022-11-20T15:50:41;4.47;;;2.33;;
10458;SDS011;5277;48.722;8.736;2022-11-20T15:53:14;7.77;;;1.93;;
10458;SDS011;5277;48.722;8.736;2022-11-20T15:58:08;5.30;;;2.00;;
10458;SDS011;5277;48.722;8.736;2022-11-20T16:00:34;3.97;;;2.30;;
10458;SDS011;5277;48.722;8.736;2022-11-20T16:03:00;6.33;;;2.60;;
10458;SDS011;5277;48.722;8.736;2022-11-20T16:05:28;5.13;;;2.70;;
10458;SDS011;5277;48.722;8.736;2022-11-20T16:07:54;3.83;;;3.00;;
10458;SDS011;5277;48.722;8.736;2022-11-20T16:10:20;4.07;;;3.00;;
10458;SDS011;5277;48.722;8.736;2022-11-20T16:12:46;6.77;;;3.20;;
10458;SDS011;5277;48.722;8.736;2022-11-20T16:15:30;5.37;;;3.30;;
10458;SDS011;5277;48.722;8.736;2022-11-20T16:18:12;10.10;;;3.93;;
10458;SDS011;5277;48.722;8.736;2022-11-20T16:20:39;7.47;;;4.43;;
10458;SDS011;5277;48.722;8.736;2022-11-20T16:23:05;6.90;;;4.90;;
10458;SDS011;5277;48.722;8.736;2022-11-20T16:25:31;6.00;;;4.10;;
10458;SDS011;5277;48.722;8.736;2022-11-20T16:28:00;6.80;;;3.93;;
10458;SDS011;5277;48.722;8.736;2022-11-20T16:30:26;6.03;;;3.80;;
10458;SDS011;5277;48.722;8.736;2022-11-20T16:32:52;5.37;;;3.17;;
10458;SDS011;5277;48.722;8.736;2022-11-20T16:35:17;7.57;;;3.33;;
10458;SDS011;5277;48.722;8.736;2022-11-20T16:37:43;3.90;;;2.93;;
10458;SDS011;5277;48.722;8.736;2022-11-20T16:40:09;4.00;;;3.10;;
10458;SDS011;5277;48.722;8.736;2022-11-20T16:42:36;6.10;;;3.43;;
10458;SDS011;5277;48.722;8.736;2022-11-20T16:47:36;5.07;;;3.13;;
10458;SDS011;5277;48.722;8.736;2022-11-20T16:50:02;4.73;;;2.87;;
10458;SDS011;5277;48.722;8.736;2022-11-20T16:52:29;6.27;;;3.17;;
10458;SDS011;5277;48.722;8.736;2022-11-20T16:54:55;6.40;;;3.47;;
10458;SDS011;5277;48.722;8.736;2022-11-20T16:57:21;7.77;;;4.80;;